createdAt,value
2023-04-10T00:00:51.484Z,60.1
2023-04-10T00:01:57.173Z,59.96
2023-04-10T00:03:03.655Z,59.95
2023-04-10T00:04:09.673Z,60.07
2023-04-10T00:05:15.488Z,60.03
2023-04-10T00:06:21.036Z,59.95
2023-04-10T00:07:26.533Z,60.2
2023-04-10T00:08:31.991Z,60.03
2023-04-10T00:09:37.354Z,60.25
2023-04-10T00:10:42.711Z,60.23
2023-04-10T00:11:48.105Z,60.04
2023-04-10T00:12:53.449Z,60.78
2023-04-10T00:13:58.875Z,60.32
2023-04-10T00:15:04.248Z,60.27
2023-04-10T00:16:09.755Z,61.09
2023-04-10T00:17:15.170Z,60.84
2023-04-10T00:18:20.560Z,60.46
2023-04-10T00:19:25.952Z,61.59
2023-04-10T00:20:31.343Z,60.72
2023-04-10T00:21:36.712Z,60.87
2023-04-10T00:22:42.108Z,61.28
2023-04-10T00:23:47.546Z,60.66
2023-04-10T00:24:52.911Z,61.09
2023-04-10T00:25:58.277Z,60.53
2023-04-10T00:27:03.628Z,61.3
2023-04-10T00:28:10.017Z,61.14
2023-04-10T00:29:15.464Z,61.3
2023-04-10T00:30:20.840Z,60.56
2023-04-10T00:31:26.296Z,61.32
2023-04-10T00:32:31.791Z,61.07
2023-04-10T00:33:37.142Z,60.93
2023-04-10T00:34:42.500Z,60.65
2023-04-10T00:35:48.080Z,60.65
2023-04-10T00:36:53.534Z,60.75
2023-04-10T00:37:58.915Z,61.73
2023-04-10T00:39:04.287Z,61.14
2023-04-10T00:40:11.991Z,60.78
2023-04-10T00:41:17.389Z,62.09
2023-04-10T00:42:22.735Z,61.76
2023-04-10T00:43:28.104Z,61.29
2023-04-10T00:44:33.490Z,61.04
2023-04-10T00:45:38.936Z,61.51
2023-04-10T00:46:44.374Z,61.38
2023-04-10T00:47:50.051Z,61.03
2023-04-10T00:48:55.447Z,60.87
2023-04-10T00:50:03.366Z,60.79
2023-04-10T00:51:08.756Z,60.8
2023-04-10T00:52:14.179Z,61.07
2023-04-10T00:53:19.643Z,61.23
2023-04-10T00:54:25.025Z,61.15
2023-04-10T00:55:30.401Z,61.81
2023-04-10T00:56:35.768Z,62.1
2023-04-10T00:57:41.146Z,61.31
2023-04-10T00:58:46.534Z,61.2
2023-04-10T00:59:51.926Z,61.78
2023-04-10T01:00:57.383Z,61.53
2023-04-10T01:02:03.321Z,61
2023-04-10T01:03:09.445Z,61.95
2023-04-10T01:04:15.371Z,62.12
2023-04-10T01:05:20.839Z,62.12
2023-04-10T01:06:26.205Z,62.19
2023-04-10T01:07:31.576Z,62.42
2023-04-10T01:08:37.008Z,62.31
2023-04-10T01:09:42.384Z,61.62
2023-04-10T01:10:47.769Z,61.48
2023-04-10T01:11:53.211Z,61.84
2023-04-10T01:12:58.576Z,61.83
2023-04-10T01:14:03.946Z,61.52
2023-04-10T01:15:09.322Z,61.23
2023-04-10T01:16:14.734Z,61.76
2023-04-10T01:17:20.338Z,62.13
2023-04-10T01:18:25.772Z,62.16
2023-04-10T01:19:31.197Z,62.06
2023-04-10T01:20:36.576Z,61.46
2023-04-10T01:21:41.968Z,61.63
2023-04-10T01:22:47.370Z,61.35
2023-04-10T01:23:53.350Z,61.22
2023-04-10T01:24:58.895Z,61
2023-04-10T01:26:04.286Z,61.25
2023-04-10T01:27:09.710Z,61.36
2023-04-10T01:28:15.078Z,61.03
2023-04-10T01:29:20.504Z,62.12
2023-04-10T01:30:25.907Z,62.04
2023-04-10T01:31:31.266Z,62.1
2023-04-10T01:32:36.817Z,61.81
2023-04-10T01:33:42.252Z,62.26
2023-04-10T01:34:47.896Z,61.25
2023-04-10T01:35:53.425Z,61.52
2023-04-10T01:36:58.974Z,62
2023-04-10T01:38:04.356Z,61.24
2023-04-10T01:39:09.714Z,62.1
2023-04-10T01:40:15.072Z,61.78
2023-04-10T01:41:20.495Z,62.33
2023-04-10T01:42:26.159Z,61.54
2023-04-10T01:43:31.541Z,61.93
2023-04-10T01:44:36.910Z,62.43
2023-04-10T01:45:42.319Z,61.31
2023-04-10T01:46:47.934Z,62.18
2023-04-10T01:47:53.491Z,62.58
2023-04-10T01:48:58.939Z,62.58
2023-04-10T01:50:04.328Z,62.63
2023-04-10T01:51:09.758Z,62.03
2023-04-10T01:52:15.153Z,62.67
2023-04-10T01:53:20.624Z,61.64
2023-04-10T01:54:26.042Z,62.42
2023-04-10T01:55:31.445Z,61.39
2023-04-10T01:56:36.846Z,62.6
2023-04-10T01:57:42.206Z,61.8
2023-04-10T01:58:48.611Z,61.85
2023-04-10T01:59:54.009Z,61.39
2023-04-10T02:00:59.568Z,62.75
2023-04-10T02:02:05.254Z,62.06
2023-04-10T02:03:11.742Z,62.01
2023-04-10T02:04:17.458Z,61.74
2023-04-10T02:05:22.919Z,61.61
2023-04-10T02:06:28.322Z,61.88
2023-04-10T02:07:33.693Z,61.83
2023-04-10T02:08:39.108Z,62.46
2023-04-10T02:09:44.496Z,61.43
2023-04-10T02:10:49.859Z,62.48
2023-04-10T02:11:55.233Z,61.68
2023-04-10T02:13:00.688Z,61.67
2023-04-10T02:14:06.052Z,61.66
2023-04-10T02:15:11.433Z,61.33
2023-04-10T02:16:16.996Z,61.74
2023-04-10T02:17:22.469Z,62.58
2023-04-10T02:18:27.842Z,61.81
2023-04-10T02:19:33.219Z,62.06
2023-04-10T02:20:38.587Z,61.75
2023-04-10T02:21:43.971Z,61.47
2023-04-10T02:22:49.368Z,61.83
2023-04-10T02:23:55.359Z,62.25
2023-04-10T02:25:00.829Z,62.03
2023-04-10T02:26:06.187Z,61.82
2023-04-10T02:27:11.574Z,61.56
2023-04-10T02:28:16.984Z,62.81
2023-04-10T02:29:22.360Z,62.48
2023-04-10T02:30:27.708Z,62.47
2023-04-10T02:31:33.231Z,62.79
2023-04-10T02:32:38.736Z,63.13
2023-04-10T02:33:44.591Z,62.76
2023-04-10T02:34:50.025Z,62.92
2023-04-10T02:35:55.546Z,63.01
2023-04-10T02:37:00.923Z,63
2023-04-10T02:38:06.280Z,62.66
2023-04-10T02:39:11.657Z,62.66
2023-04-10T02:40:17.008Z,62.35
2023-04-10T02:41:22.362Z,62.32
2023-04-10T02:42:27.774Z,62.59
2023-04-10T02:43:33.306Z,63.06
2023-04-10T02:44:38.705Z,63.12
2023-04-10T02:45:44.111Z,63.32
2023-04-10T02:46:49.619Z,63.06
2023-04-10T02:47:55.298Z,63.27
2023-04-10T02:49:00.786Z,62.87
2023-04-10T02:50:06.177Z,63.27
2023-04-10T02:51:11.565Z,63.37
2023-04-10T02:52:16.981Z,63.28
2023-04-10T02:53:22.348Z,63.26
2023-04-10T02:54:27.724Z,62.8
2023-04-10T02:55:33.090Z,63.11
2023-04-10T02:56:38.525Z,63.42
2023-04-10T02:57:43.944Z,63.32
2023-04-10T02:58:49.322Z,62.71
2023-04-10T02:59:54.706Z,63.37
2023-04-10T03:01:00.068Z,63.3
2023-04-10T03:02:05.715Z,63.15
2023-04-10T03:03:11.442Z,63.55
2023-04-10T03:04:17.225Z,63.62
2023-04-10T03:05:23.699Z,63.45
2023-04-10T03:06:29.055Z,62.74
2023-04-10T03:07:34.453Z,63.43
2023-04-10T03:08:39.814Z,63.51
2023-04-10T03:09:45.189Z,63.47
2023-04-10T03:10:50.586Z,63.08
2023-04-10T03:11:56.011Z,63.66
2023-04-10T03:13:01.408Z,63.55
2023-04-10T03:14:06.853Z,63.71
2023-04-10T03:15:12.223Z,62.93
2023-04-10T03:16:17.765Z,63.54
2023-04-10T03:17:23.204Z,63.49
2023-04-10T03:18:28.586Z,63.14
2023-04-10T03:19:33.985Z,63.29
2023-04-10T03:20:39.400Z,63.38
2023-04-10T03:21:44.754Z,63.43
2023-04-10T03:22:50.146Z,63.65
2023-04-10T03:23:56.220Z,63.39
2023-04-10T03:25:01.654Z,63.83
2023-04-10T03:26:07.058Z,63.76
2023-04-10T03:27:12.475Z,63.73
2023-04-10T03:28:17.902Z,63.43
2023-04-10T03:29:23.265Z,63.67
2023-04-10T03:30:28.913Z,63.96
2023-04-10T03:31:34.482Z,63.69
2023-04-10T03:32:39.901Z,63.51
2023-04-10T03:33:45.389Z,63.66
2023-04-10T03:34:50.780Z,63.04
2023-04-10T03:35:56.371Z,63.73
2023-04-10T03:37:01.821Z,63.55
2023-04-10T03:38:07.230Z,63.8
2023-04-10T03:39:12.608Z,63.87
2023-04-10T03:40:17.968Z,63.19
2023-04-10T03:41:25.750Z,63.5
2023-04-10T03:42:31.222Z,62.95
2023-04-10T03:43:36.617Z,63.5
2023-04-10T03:44:42.032Z,63.42
2023-04-10T03:45:47.418Z,62.54
2023-04-10T03:46:52.951Z,63.51
2023-04-10T03:47:58.427Z,63.61
2023-04-10T03:49:03.923Z,63.48
2023-04-10T03:50:09.350Z,63.48
2023-04-10T03:51:14.722Z,63.56
2023-04-10T03:52:20.087Z,63.93
2023-04-10T03:53:28.542Z,63.77
2023-04-10T03:54:33.943Z,63.57
2023-04-10T03:55:39.297Z,63.38
2023-04-10T03:56:44.739Z,63.51
2023-04-10T03:57:50.156Z,63.25
2023-04-10T03:58:55.526Z,62.89
2023-04-10T04:00:00.882Z,63.35
2023-04-10T04:01:07.260Z,63.53
2023-04-10T04:02:13.058Z,63.64
2023-04-10T04:03:19.274Z,63.74
2023-04-10T04:04:25.175Z,63.88
2023-04-10T04:05:30.636Z,63.16
2023-04-10T04:06:36.023Z,62.22
2023-04-10T04:07:41.427Z,61.69
2023-04-10T04:08:46.873Z,62.67
2023-04-10T04:09:52.268Z,62.81
2023-04-10T04:10:58.164Z,62.51
2023-04-10T04:12:03.671Z,62.06
2023-04-10T04:13:09.049Z,61.77
2023-04-10T04:14:14.440Z,61.34
2023-04-10T04:15:19.827Z,61.15
2023-04-10T04:16:25.252Z,61.33
2023-04-10T04:17:30.736Z,60.62
2023-04-10T04:18:36.086Z,60.51
2023-04-10T04:19:41.549Z,60.18
2023-04-10T04:20:46.978Z,60.09
2023-04-10T04:21:52.381Z,59.99
2023-04-10T04:22:57.780Z,59.94
2023-04-10T04:24:03.188Z,59.92
2023-04-10T04:25:08.610Z,59.77
2023-04-10T04:26:14.021Z,59.85
2023-04-10T04:27:19.370Z,59.65
2023-04-10T04:28:24.791Z,59.94
2023-04-10T04:29:30.161Z,59.77
2023-04-10T04:30:35.584Z,59.69
2023-04-10T04:31:41.000Z,59.56
2023-04-10T04:32:46.523Z,59.64
2023-04-10T04:33:52.075Z,59.47
2023-04-10T04:34:57.609Z,59.52
2023-04-10T04:36:03.145Z,59.42
2023-04-10T04:37:08.561Z,59.26
2023-04-10T04:38:13.946Z,59.38
2023-04-10T04:39:19.342Z,59.34
2023-04-10T04:40:24.706Z,59.39
2023-04-10T04:41:30.075Z,59.34
2023-04-10T04:42:35.467Z,59.48
2023-04-10T04:43:40.830Z,59.35
2023-04-10T04:44:46.219Z,59.2
2023-04-10T04:45:51.712Z,59.27
2023-04-10T04:46:57.106Z,59.29
2023-04-10T04:48:02.840Z,59.52
2023-04-10T04:49:08.213Z,59.2
2023-04-10T04:50:13.712Z,59.23
2023-04-10T04:51:19.128Z,59.19
2023-04-10T04:52:24.480Z,59.12
2023-04-10T04:53:29.864Z,59.1
2023-04-10T04:54:35.221Z,59.36
2023-04-10T04:55:40.624Z,59.22
2023-04-10T04:56:46.003Z,59.29
2023-04-10T04:57:51.410Z,59.24
2023-04-10T04:58:57.286Z,59.26
2023-04-10T05:00:02.668Z,59.38
2023-04-10T05:01:08.221Z,59.37
2023-04-10T05:02:13.888Z,59.28
2023-04-10T05:03:19.956Z,59.36
2023-04-10T05:04:26.243Z,59.43
2023-04-10T05:05:31.780Z,59.37
2023-04-10T05:06:37.174Z,59.5
2023-04-10T05:07:42.559Z,59.48
2023-04-10T05:08:48.047Z,59.53
2023-04-10T05:09:53.429Z,59.79
2023-04-10T05:10:58.782Z,59.73
2023-04-10T05:12:04.199Z,59.89
2023-04-10T05:13:09.567Z,59.94
2023-04-10T05:14:14.934Z,60.07
2023-04-10T05:15:20.278Z,60.27
2023-04-10T05:16:26.187Z,60.45
2023-04-10T05:17:31.767Z,60.49
2023-04-10T05:18:37.385Z,60.49
2023-04-10T05:19:42.813Z,60.9
2023-04-10T05:20:48.221Z,60.98
2023-04-10T05:21:53.596Z,60.97
2023-04-10T05:22:58.962Z,61.08
2023-04-10T05:24:04.337Z,61.42
2023-04-10T05:25:09.706Z,61.25
2023-04-10T05:26:15.548Z,61.41
2023-04-10T05:27:20.901Z,61.32
2023-04-10T05:28:28.642Z,61.23
2023-04-10T05:29:34.034Z,61.24
2023-04-10T05:30:39.402Z,61.18
2023-04-10T05:31:44.818Z,61.29
2023-04-10T05:32:50.292Z,61.39
2023-04-10T05:33:55.692Z,61.33
2023-04-10T05:35:01.071Z,60.7
2023-04-10T05:36:06.627Z,61.38
2023-04-10T05:37:11.993Z,61.02
2023-04-10T05:38:17.360Z,61.26
2023-04-10T05:39:22.736Z,61.13
2023-04-10T05:40:28.136Z,61.17
2023-04-10T05:41:33.563Z,60.99
2023-04-10T05:42:38.947Z,61.06
2023-04-10T05:43:44.578Z,61.25
2023-04-10T05:44:49.919Z,61.3
2023-04-10T05:45:55.434Z,61.19
2023-04-10T05:47:00.834Z,61.16
2023-04-10T05:48:06.342Z,61.14
2023-04-10T05:49:11.796Z,60.91
2023-04-10T05:50:17.160Z,61.03
2023-04-10T05:51:22.530Z,60.95
2023-04-10T05:52:27.914Z,60.86
2023-04-10T05:53:33.297Z,60.87
2023-04-10T05:54:38.702Z,60.73
2023-04-10T05:55:44.066Z,60.92
2023-04-10T05:56:49.428Z,60.85
2023-04-10T05:57:54.798Z,60.87
2023-04-10T05:59:00.202Z,60.58
2023-04-10T06:00:05.602Z,60.88
2023-04-10T06:01:11.111Z,60.61
2023-04-10T06:02:19.179Z,60.87
2023-04-10T06:03:25.083Z,60.78
2023-04-10T06:04:31.203Z,60.48
2023-04-10T06:05:36.654Z,60.82
2023-04-10T06:06:42.051Z,60.94
2023-04-10T06:07:47.436Z,60.78
2023-04-10T06:08:53.387Z,60.87
2023-04-10T06:09:59.305Z,60.8
2023-04-10T06:11:04.743Z,61.09
2023-04-10T06:12:10.163Z,60.73
2023-04-10T06:13:15.552Z,60.82
2023-04-10T06:14:20.982Z,60.98
2023-04-10T06:15:26.367Z,60.87
2023-04-10T06:16:32.089Z,60.92
2023-04-10T06:17:37.691Z,61.28
2023-04-10T06:18:43.331Z,61.3
2023-04-10T06:19:48.735Z,61.02
2023-04-10T06:20:54.123Z,61.05
2023-04-10T06:21:59.559Z,61.01
2023-04-10T06:23:04.949Z,61.08
2023-04-10T06:24:12.853Z,60.95
2023-04-10T06:25:18.631Z,61.15
2023-04-10T06:26:23.994Z,60.86
2023-04-10T06:27:29.450Z,60.78
2023-04-10T06:28:34.790Z,60.86
2023-04-10T06:29:40.157Z,61.18
2023-04-10T06:30:45.533Z,60.84
2023-04-10T06:31:51.307Z,60.65
2023-04-10T06:32:57.086Z,60.85
2023-04-10T06:34:02.507Z,60.98
2023-04-10T06:35:07.857Z,60.73
2023-04-10T06:36:13.388Z,60.88
2023-04-10T06:37:18.911Z,60.77
2023-04-10T06:38:24.290Z,60.34
2023-04-10T06:39:29.702Z,60.63
2023-04-10T06:40:35.114Z,60.82
2023-04-10T06:41:40.783Z,60.69
2023-04-10T06:42:46.130Z,60.34
2023-04-10T06:43:52.538Z,60.2
2023-04-10T06:44:57.898Z,60.08
2023-04-10T06:46:03.276Z,59.85
2023-04-10T06:47:08.881Z,59.7
2023-04-10T06:48:14.448Z,59.65
2023-04-10T06:49:19.870Z,59.56
2023-04-10T06:50:25.286Z,59.65
2023-04-10T06:51:30.706Z,59.42
2023-04-10T06:52:36.049Z,59.43
2023-04-10T06:53:41.462Z,59.41
2023-04-10T06:54:46.823Z,59.55
2023-04-10T06:55:52.261Z,59.6
2023-04-10T06:56:57.912Z,59.56
2023-04-10T06:58:03.319Z,59.65
2023-04-10T06:59:08.739Z,59.82
2023-04-10T07:00:14.178Z,59.78
2023-04-10T07:01:19.882Z,59.69
2023-04-10T07:02:25.705Z,59.77
2023-04-10T07:03:31.187Z,59.84
2023-04-10T07:04:36.606Z,59.87
2023-04-10T07:05:44.775Z,59.8
2023-04-10T07:06:50.189Z,59.86
2023-04-10T07:07:55.707Z,59.87
2023-04-10T07:09:01.417Z,59.89
2023-04-10T07:10:06.842Z,59.85
2023-04-10T07:11:12.218Z,59.89
2023-04-10T07:12:17.613Z,60
2023-04-10T07:13:23.161Z,59.79
2023-04-10T07:14:28.542Z,60.02
2023-04-10T07:15:33.917Z,59.98
2023-04-10T07:16:39.417Z,60.14
2023-04-10T07:17:45.099Z,60.05
2023-04-10T07:18:50.578Z,60.25
2023-04-10T07:19:55.967Z,60.13
2023-04-10T07:21:01.394Z,60.18
2023-04-10T07:22:06.750Z,60.17
2023-04-10T07:23:12.174Z,60.08
2023-04-10T07:24:17.524Z,60.1
2023-04-10T07:25:22.917Z,60.14
2023-04-10T07:26:28.340Z,60.31
2023-04-10T07:27:33.709Z,60.44
2023-04-10T07:28:39.157Z,60.27
2023-04-10T07:29:44.525Z,60.14
2023-04-10T07:30:49.929Z,60.37
2023-04-10T07:31:55.652Z,60.02
2023-04-10T07:33:01.897Z,60.19
2023-04-10T07:34:07.435Z,60.22
2023-04-10T07:35:12.790Z,60.05
2023-04-10T07:36:18.240Z,60.24
2023-04-10T07:37:23.653Z,60.05
2023-04-10T07:38:29.137Z,60.15
2023-04-10T07:39:34.510Z,60.71
2023-04-10T07:40:39.879Z,60.36
2023-04-10T07:41:45.265Z,60.26
2023-04-10T07:42:52.040Z,60.37
2023-04-10T07:43:58.732Z,60.35
2023-04-10T07:45:04.153Z,60.45
2023-04-10T07:46:09.843Z,60.46
2023-04-10T07:47:15.332Z,60.23
2023-04-10T07:48:20.734Z,60.37
2023-04-10T07:49:26.245Z,60.26
2023-04-10T07:50:31.648Z,60.34
2023-04-10T07:51:37.053Z,59.94
2023-04-10T07:52:42.469Z,59.93
2023-04-10T07:53:47.824Z,59.77
2023-04-10T07:54:53.319Z,59.88
2023-04-10T07:55:58.768Z,59.96
2023-04-10T07:57:04.157Z,59.7
2023-04-10T07:58:09.606Z,59.73
2023-04-10T07:59:15.013Z,59.59
2023-04-10T08:00:20.420Z,59.67
2023-04-10T08:01:25.838Z,59.62
2023-04-10T08:02:31.787Z,59.56
2023-04-10T08:03:37.684Z,59.63
2023-04-10T08:04:43.478Z,59.79
2023-04-10T08:05:48.922Z,59.63
2023-04-10T08:06:54.300Z,59.52
2023-04-10T08:07:59.695Z,59.55
2023-04-10T08:09:05.048Z,59.69
2023-04-10T08:10:15.490Z,59.72
2023-04-10T08:11:20.862Z,59.63
2023-04-10T08:12:26.234Z,59.67
2023-04-10T08:13:31.622Z,59.71
2023-04-10T08:14:36.999Z,59.65
2023-04-10T08:15:42.385Z,59.42
2023-04-10T08:16:47.990Z,59.7
2023-04-10T08:17:53.708Z,59.68
2023-04-10T08:18:59.568Z,59.7
2023-04-10T08:20:04.953Z,59.54
2023-04-10T08:21:10.349Z,59.49
2023-04-10T08:22:15.782Z,59.54
2023-04-10T08:23:23.712Z,59.49
2023-04-10T08:24:29.094Z,59.62
2023-04-10T08:25:34.486Z,59.71
2023-04-10T08:26:40.080Z,59.63
2023-04-10T08:27:45.483Z,59.64
2023-04-10T08:28:50.947Z,59.64
2023-04-10T08:29:56.407Z,59.65
2023-04-10T08:31:01.860Z,59.5
2023-04-10T08:32:07.269Z,59.56
2023-04-10T08:33:12.675Z,59.57
2023-04-10T08:34:18.066Z,59.59
2023-04-10T08:35:23.427Z,59.43
2023-04-10T08:36:28.911Z,59.51
2023-04-10T08:37:34.322Z,59.63
2023-04-10T08:38:39.727Z,59.57
2023-04-10T08:39:45.126Z,59.61
2023-04-10T08:40:50.476Z,59.61
2023-04-10T08:41:55.832Z,59.63
2023-04-10T08:43:01.236Z,59.65
2023-04-10T08:44:06.601Z,59.49
2023-04-10T08:45:12.188Z,59.64
2023-04-10T08:46:18.127Z,59.54
2023-04-10T08:47:23.691Z,59.58
2023-04-10T08:48:29.103Z,59.53
2023-04-10T08:49:34.480Z,59.58
2023-04-10T08:50:39.896Z,59.54
2023-04-10T08:51:46.690Z,59.6
2023-04-10T08:52:53.145Z,59.53
2023-04-10T08:53:58.765Z,59.51
2023-04-10T08:55:04.130Z,59.48
2023-04-10T08:56:09.628Z,59.48
2023-04-10T08:57:14.976Z,59.45
2023-04-10T08:58:20.322Z,59.44
2023-04-10T08:59:25.947Z,59.45
2023-04-10T09:00:31.314Z,59.44
2023-04-10T09:01:36.981Z,59.41
2023-04-10T09:09:02.959Z,59.48
2023-04-10T09:10:08.614Z,59.53
2023-04-10T09:11:14.022Z,59.47
2023-04-10T09:12:19.372Z,59.41
2023-04-10T09:13:24.782Z,59.46
2023-04-10T09:14:30.160Z,59.49
2023-04-10T09:15:35.653Z,59.45
2023-04-10T09:16:41.034Z,59.4
2023-04-10T09:17:46.555Z,59.37
2023-04-10T09:18:51.970Z,59.31
2023-04-10T09:19:57.521Z,59.25
2023-04-10T09:21:02.888Z,59.33
2023-04-10T09:22:08.525Z,59.33
2023-04-10T09:23:13.888Z,59.32
2023-04-10T09:24:19.286Z,59.26
2023-04-10T09:25:24.644Z,59.25
2023-04-10T09:26:30.063Z,59.24
2023-04-10T09:27:35.767Z,59.2
2023-04-10T09:28:41.235Z,59.3
2023-04-10T09:29:46.725Z,59.28
2023-04-10T09:30:52.123Z,59.29
2023-04-10T09:31:57.500Z,59.19
2023-04-10T09:33:05.550Z,59.25
2023-04-10T09:34:11.029Z,59.12
2023-04-10T09:35:16.638Z,59.13
2023-04-10T09:36:22.170Z,59.12
2023-04-10T09:37:27.746Z,59.06
2023-04-10T09:38:33.185Z,59.04
2023-04-10T09:39:38.821Z,59.05
2023-04-10T09:40:44.216Z,59.07
2023-04-10T09:41:49.594Z,59.07
2023-04-10T09:42:54.985Z,58.99
2023-04-10T09:44:00.339Z,59.07
2023-04-10T09:45:05.755Z,59.13
2023-04-10T09:46:11.225Z,59.01
2023-04-10T09:47:16.784Z,58.97
2023-04-10T09:48:22.178Z,58.97
2023-04-10T09:49:27.553Z,58.92
2023-04-10T09:50:40.317Z,58.9
2023-04-10T09:51:45.968Z,58.92
2023-04-10T09:52:51.382Z,58.91
2023-04-10T09:53:57.380Z,59.05
2023-04-10T09:55:02.803Z,59
2023-04-10T09:56:08.274Z,58.93
2023-04-10T09:57:13.647Z,58.98
2023-04-10T09:58:19.063Z,58.78
2023-04-10T09:59:24.480Z,58.72
2023-04-10T10:00:29.876Z,58.75
2023-04-10T10:01:35.471Z,58.84
2023-04-10T10:02:41.429Z,58.81
2023-04-10T10:03:47.033Z,58.72
2023-04-10T10:04:52.666Z,58.77
2023-04-10T10:05:58.130Z,58.84
2023-04-10T10:07:03.562Z,58.69
2023-04-10T10:08:08.925Z,58.72
2023-04-10T10:09:14.276Z,58.71
2023-04-10T10:10:19.647Z,58.76
2023-04-10T10:11:25.011Z,58.66
2023-04-10T10:12:30.457Z,58.71
2023-04-10T10:13:35.849Z,58.67
2023-04-10T10:14:42.077Z,58.66
2023-04-10T10:15:47.514Z,58.73
2023-04-10T10:16:52.911Z,58.77
2023-04-10T10:17:58.444Z,58.8
2023-04-10T10:19:03.945Z,58.85
2023-04-10T10:20:09.311Z,58.8
2023-04-10T10:21:14.724Z,58.81
2023-04-10T10:22:20.090Z,58.92
2023-04-10T10:23:25.747Z,58.89
2023-04-10T10:24:31.170Z,58.83
2023-04-10T10:25:36.575Z,58.8
2023-04-10T10:26:41.960Z,58.87
2023-04-10T10:27:47.357Z,58.81
2023-04-10T10:28:53.041Z,58.77
2023-04-10T10:29:58.907Z,58.62
2023-04-10T10:31:05.188Z,58.67
2023-04-10T10:32:10.601Z,58.68
2023-04-10T10:33:16.018Z,58.72
2023-04-10T10:34:21.585Z,58.67
2023-04-10T10:35:31.140Z,58.69
2023-04-10T10:36:36.702Z,58.64
2023-04-10T10:37:42.145Z,58.49
2023-04-10T10:38:47.496Z,58.47
2023-04-10T10:39:52.848Z,58.51
2023-04-10T10:40:58.185Z,58.58
2023-04-10T10:42:04.617Z,58.59
2023-04-10T10:43:10.002Z,58.59
2023-04-10T10:44:15.365Z,58.61
2023-04-10T10:45:20.829Z,58.49
2023-04-10T10:46:26.215Z,58.4
2023-04-10T10:47:31.686Z,58.44
2023-04-10T10:48:37.074Z,58.46
2023-04-10T10:49:42.435Z,58.38
2023-04-10T10:50:47.815Z,58.43
2023-04-10T10:51:53.253Z,58.51
2023-04-10T10:52:59.129Z,58.47
2023-04-10T10:54:04.601Z,58.42
2023-04-10T10:55:10.034Z,58.38
2023-04-10T10:56:15.382Z,58.31
2023-04-10T10:57:20.740Z,58.33
2023-04-10T10:58:26.139Z,58.37
2023-04-10T10:59:31.503Z,58.33
2023-04-10T11:00:36.901Z,58.34
2023-04-10T11:01:42.788Z,58.35
2023-04-10T11:02:48.507Z,58.31
2023-04-10T11:03:54.237Z,58.39
2023-04-10T11:04:59.663Z,58.3
2023-04-10T11:06:05.055Z,58.29
2023-04-10T11:07:10.438Z,58.22
2023-04-10T11:08:15.780Z,58.31
2023-04-10T11:09:21.140Z,58.15
2023-04-10T11:10:26.506Z,58.23
2023-04-10T11:11:31.873Z,58.32
2023-04-10T11:12:38.722Z,58.34
2023-04-10T11:13:44.156Z,58.41
2023-04-10T11:14:49.519Z,58.39
2023-04-10T11:15:54.884Z,58.41
2023-04-10T11:17:00.980Z,58.47
2023-04-10T11:18:06.457Z,58.46
2023-04-10T11:19:19.173Z,58.42
2023-04-10T11:20:26.126Z,58.43
2023-04-10T11:21:31.560Z,58.37
2023-04-10T11:22:36.917Z,58.3
2023-04-10T11:23:42.298Z,58.29
2023-04-10T11:24:47.674Z,58.23
2023-04-10T11:25:53.108Z,58.15
2023-04-10T11:26:58.529Z,58.08
2023-04-10T11:28:03.874Z,58.02
2023-04-10T11:29:11.858Z,58.05
2023-04-10T11:30:17.233Z,57.99
2023-04-10T11:31:23.104Z,57.95
2023-04-10T11:32:28.667Z,57.84
2023-04-10T11:33:34.036Z,57.81
2023-04-10T11:34:39.435Z,57.74
2023-04-10T11:35:44.924Z,57.76
2023-04-10T11:36:50.348Z,57.75
2023-04-10T11:37:55.757Z,57.74
2023-04-10T11:39:01.162Z,57.67
2023-04-10T11:40:06.570Z,57.61
2023-04-10T11:41:11.992Z,57.61
2023-04-10T11:42:17.403Z,57.59
2023-04-10T11:43:22.785Z,57.56
2023-04-10T11:44:28.164Z,57.51
2023-04-10T11:45:33.562Z,57.51
2023-04-10T11:46:38.922Z,57.51
2023-04-10T11:47:44.476Z,57.53
2023-04-10T11:48:49.879Z,57.52
2023-04-10T11:49:55.283Z,57.53
2023-04-10T11:51:00.706Z,57.55
2023-04-10T11:52:06.083Z,57.54
2023-04-10T11:53:11.551Z,57.53
2023-04-10T11:54:17.853Z,57.56
2023-04-10T11:55:23.260Z,57.54
2023-04-10T11:56:28.731Z,57.56
2023-04-10T11:57:34.120Z,57.53
2023-04-10T11:58:39.477Z,57.49
2023-04-10T11:59:44.880Z,57.53
2023-04-10T12:00:50.241Z,57.52
2023-04-10T12:01:55.847Z,57.52
2023-04-10T12:03:02.148Z,57.5
2023-04-10T12:04:08.303Z,57.52
2023-04-10T12:05:14.140Z,57.46
2023-04-10T12:06:19.586Z,57.47
2023-04-10T12:07:24.979Z,57.43
2023-04-10T12:08:30.384Z,57.43
2023-04-10T12:09:35.769Z,57.44
2023-04-10T12:10:41.132Z,57.45
2023-04-10T12:11:46.508Z,57.44
2023-04-10T12:12:51.942Z,57.41
2023-04-10T12:13:57.303Z,57.45
2023-04-10T12:15:02.719Z,57.48
2023-04-10T12:16:08.323Z,57.46
2023-04-10T12:17:13.762Z,57.46
2023-04-10T12:18:19.148Z,57.45
2023-04-10T12:19:24.538Z,57.51
2023-04-10T12:20:29.950Z,57.5
2023-04-10T12:21:35.320Z,57.53
2023-04-10T12:22:40.798Z,57.5
2023-04-10T12:23:46.264Z,57.6
2023-04-10T12:24:51.630Z,57.61
2023-04-10T12:25:56.983Z,57.64
2023-04-10T12:27:03.179Z,57.84
2023-04-10T12:28:10.822Z,57.84
2023-04-10T12:29:16.269Z,57.9
2023-04-10T12:30:21.709Z,57.99
2023-04-10T12:31:27.211Z,58.04
2023-04-10T12:32:32.710Z,57.91
2023-04-10T12:33:38.146Z,58.12
2023-04-10T12:34:43.547Z,58.12
2023-04-10T12:35:49.064Z,58.26
2023-04-10T12:36:54.472Z,58.17
2023-04-10T12:37:59.907Z,58.23
2023-04-10T12:39:05.351Z,58.2
2023-04-10T12:40:10.773Z,58.07
2023-04-10T12:41:16.157Z,57.99
2023-04-10T12:42:21.548Z,58.13
2023-04-10T12:43:26.917Z,58.07
2023-04-10T12:44:32.290Z,58.11
2023-04-10T12:45:37.646Z,58.11
2023-04-10T12:46:43.505Z,57.99
2023-04-10T12:47:49.197Z,58.02
2023-04-10T12:48:55.722Z,58.12
2023-04-10T12:50:01.366Z,58.06
2023-04-10T12:51:06.852Z,57.97
2023-04-10T12:52:12.293Z,58.15
2023-04-10T12:53:17.927Z,58.05
2023-04-10T12:54:23.454Z,58.08
2023-04-10T12:55:28.872Z,58.13
2023-04-10T12:56:34.239Z,57.93
2023-04-10T12:57:39.602Z,57.88
2023-04-10T12:58:44.992Z,57.91
2023-04-10T12:59:50.355Z,57.97
2023-04-10T13:00:55.708Z,57.91
2023-04-10T13:02:01.511Z,57.82
2023-04-10T13:03:07.590Z,57.81
2023-04-10T13:04:13.286Z,57.75
2023-04-10T13:05:18.740Z,57.75
2023-04-10T13:06:24.200Z,57.73
2023-04-10T13:07:29.596Z,57.71
2023-04-10T13:08:35.015Z,57.75
2023-04-10T13:09:40.380Z,57.66
2023-04-10T13:10:45.784Z,57.76
2023-04-10T13:11:54.260Z,57.67
2023-04-10T13:12:59.725Z,57.55
2023-04-10T13:14:05.088Z,57.55
2023-04-10T13:15:11.006Z,57.61
2023-04-10T13:16:16.565Z,57.57
2023-04-10T13:17:22.022Z,57.61
2023-04-10T13:18:27.477Z,57.55
2023-04-10T13:19:32.879Z,57.59
2023-04-10T13:20:38.284Z,57.55
2023-04-10T13:21:43.659Z,57.55
2023-04-10T13:22:49.048Z,57.46
2023-04-10T13:23:54.410Z,57.44
2023-04-10T13:24:59.825Z,57.4
2023-04-10T13:26:05.259Z,57.49
2023-04-10T13:27:10.649Z,57.37
2023-04-10T13:28:16.111Z,57.37
2023-04-10T13:29:21.586Z,57.39
2023-04-10T13:30:26.961Z,57.38
2023-04-10T13:31:32.493Z,57.35
2023-04-10T13:32:37.972Z,57.38
2023-04-10T13:33:43.369Z,57.38
2023-04-10T13:34:48.732Z,57.35
2023-04-10T13:35:54.238Z,57.25
2023-04-10T13:36:59.856Z,57.28
2023-04-10T13:38:05.428Z,57.22
2023-04-10T13:39:10.792Z,57.14
2023-04-10T13:40:16.187Z,57.19
2023-04-10T13:41:21.572Z,57.15
2023-04-10T13:42:26.986Z,57.13
2023-04-10T13:43:32.382Z,57.27
2023-04-10T13:44:37.830Z,57.17
2023-04-10T13:45:43.338Z,57.15
2023-04-10T13:46:48.844Z,57.13
2023-04-10T13:47:54.345Z,57.13
2023-04-10T13:49:00.691Z,57.12
2023-04-10T13:50:06.192Z,57.09
2023-04-10T13:51:11.599Z,57.05
2023-04-10T13:52:16.961Z,57.01
2023-04-10T13:53:22.365Z,57.02
2023-04-10T13:54:27.815Z,57.02
2023-04-10T13:55:33.184Z,56.97
2023-04-10T13:56:38.623Z,56.91
2023-04-10T13:57:44.681Z,57.07
2023-04-10T13:58:50.064Z,56.99
2023-04-10T13:59:55.508Z,57.02
2023-04-10T14:01:01.163Z,56.98
2023-04-10T14:02:06.828Z,57.02
2023-04-10T14:03:12.594Z,56.92
2023-04-10T14:04:18.037Z,56.9
2023-04-10T14:05:23.424Z,56.86
2023-04-10T14:06:28.776Z,56.83
2023-04-10T14:07:34.116Z,56.78
2023-04-10T14:08:39.498Z,56.83
2023-04-10T14:09:44.917Z,56.74
2023-04-10T14:10:50.306Z,56.78
2023-04-10T14:11:55.697Z,56.71
2023-04-10T14:13:01.082Z,56.71